Time;durP1;ratioP1;P1;durP2;ratioP2;P2;SDS_P1;SDS_P2;PMS_P1;PMS_P2;Temp;Humidity;BMP_temperature;BMP_pressure;BME280_temperature;BME280_humidity;BME280_pressure;Samples;Min_cycle;Max_cycle;Signal;HPM_P1;HPM_P2
2021/12/17 00:00:18;;;;;;;7.25;4.97;;;;;;;8.11;67.94;101143.03;4357821;32;32758;-91
2021/12/17 00:03:11;;;;;;;7.47;5.15;;;;;;;7.99;67.95;101145.81;4357932;32;33428;-91
2021/12/17 00:05:46;;;;;;;10.27;4.97;;;;;;;8.13;67.43;101141.25;4360160;32;32818;-91
2021/12/17 00:08:14;;;;;;;9.35;5.07;;;;;;;8.36;66.53;101141.87;4371169;32;32887;-88
2021/12/17 00:10:44;;;;;;;6.60;4.60;;;;;;;7.90;67.97;101146.78;4370831;32;33681;-88
2021/12/17 00:13:12;;;;;;;9.40;4.75;;;;;;;8.12;67.26;101156.19;4369951;32;33933;-87
2021/12/17 00:15:40;;;;;;;6.90;4.60;;;;;;;8.07;67.14;101159.72;4357683;32;33324;-87
2021/12/17 00:18:17;;;;;;;8.88;4.97;;;;;;;7.77;67.76;101167.06;4370294;32;33335;-93
2021/12/17 00:53:30;;;;;;;6.70;4.05;;;;;;;7.56;64.61;101138.37;4393691;32;32545;-91
2021/12/17 00:55:58;;;;;;;5.70;3.60;;;;;;;7.73;64.14;101146.94;4381643;32;33234;-91
2021/12/17 00:58:26;;;;;;;8.32;4.37;;;;;;;7.24;65.85;101151.81;4368383;32;33224;-91
2021/12/17 01:00:53;;;;;;;4.97;3.28;;;;;;;7.06;66.16;101144.94;4381139;32;32969;-90
2021/12/17 01:03:22;;;;;;;6.82;3.78;;;;;;;7.37;65.20;101141.19;4381293;32;33724;-90
2021/12/17 01:05:51;;;;;;;3.95;2.72;;;;;;;7.53;64.13;101141.03;4368207;32;34610;-88
2021/12/17 01:08:19;;;;;;;7.07;3.97;;;;;;;7.36;64.78;101128.06;4393750;32;33224;-88
2021/12/17 01:10:51;;;;;;;5.47;3.50;;;;;;;7.20;65.39;101122.06;4393592;32;33034;-89
2021/12/17 01:13:23;;;;;;;5.37;3.85;;;;;;;7.43;64.36;101112.22;4368950;32;32857;-89
2021/12/17 01:15:54;;;;;;;6.60;3.70;;;;;;;7.21;65.32;101102.78;4381575;32;33661;-88
2021/12/17 01:18:24;;;;;;;4.97;3.25;;;;;;;7.46;63.77;101108.69;4380826;32;34000;-89
2021/12/17 01:35:39;;;;;;;6.60;3.35;;;;;;;7.44;63.26;101079.78;4360375;32;34392;-90
2021/12/17 01:44:42;;;;;;;10.07;3.33;;;;;;;7.13;64.04;101084.50;4350574;32;31807;-93
2021/12/17 01:47:37;;;;;;;6.37;3.62;;;;;;;7.46;62.70;101089.44;4366703;32;34365;-94
2021/12/17 01:56:49;;;;;;;4.75;2.53;;;;;;;7.38;62.20;101106.12;4352011;32;32908;-89
2021/12/17 01:59:24;;;;;;;4.87;2.67;;;;;;;7.68;60.50;101101.44;4349358;32;32476;-90
2021/12/17 02:01:59;;;;;;;4.60;2.58;;;;;;;7.67;60.12;101076.03;4350775;32;33465;-91
2021/12/17 02:04:30;;;;;;;3.97;2.17;;;;;;;7.56;60.36;101077.94;4349990;32;34465;-88
2021/12/17 02:06:59;;;;;;;4.43;2.10;;;;;;;7.08;62.17;101075.78;4347467;32;34158;-94
2021/12/17 02:13:04;;;;;;;3.35;1.85;;;;;;;7.37;60.89;101095.66;4342067;32;33367;-89
2021/12/17 02:32:14;;;;;;;6.62;2.75;;;;;;;7.11;60.28;101062.59;4345390;32;33599;-88
2021/12/17 02:37:23;;;;;;;2.85;2.10;;;;;;;6.96;60.39;101077.63;4340178;32;34471;-89
2021/12/17 02:45:34;;;;;;;4.40;2.33;;;;;;;7.11;59.35;101101.13;4343136;32;33433;-89
2021/12/17 02:48:17;;;;;;;6.37;2.58;;;;;;;7.18;59.36;101106.31;4341903;32;32965;-88
2021/12/17 02:51:15;;;;;;;5.57;2.67;;;;;;;7.43;58.39;101112.22;4382399;32;35103;-91
2021/12/17 02:53:55;;;;;;;4.15;2.37;;;;;;;7.22;58.89;101103.69;4347206;32;33581;-92
2021/12/17 02:56:52;;;;;;;6.32;2.83;;;;;;;7.21;59.29;101107.16;4338035;33;34191;-90
2021/12/17 02:59:20;;;;;;;10.07;1.87;;;;;;;7.12;59.82;101097.63;4347065;32;32418;-90
2021/12/17 03:01:48;;;;;;;4.40;2.60;;;;;;;7.27;59.61;101108.00;4334116;33;33580;-90
2021/12/17 03:04:17;;;;;;;3.53;2.55;;;;;;;7.32;59.11;101100.94;4334172;33;32299;-89
2021/12/17 03:06:45;;;;;;;5.68;2.90;;;;;;;7.50;58.40;101086.75;4346852;32;34754;-89
2021/12/17 03:09:15;;;;;;;6.45;2.83;;;;;;;7.36;58.90;101097.41;4346767;32;32891;-89
2021/12/17 03:11:42;;;;;;;4.68;3.35;;;;;;;7.46;58.81;101089.44;4347211;32;31698;-89
2021/12/17 03:14:09;;;;;;;6.50;2.85;;;;;;;7.45;58.90;101091.16;4346491;33;34272;-89
2021/12/17 03:16:40;;;;;;;5.20;2.75;;;;;;;7.27;59.96;101092.25;4346765;32;32566;-89
2021/12/17 03:19:25;;;;;;;4.35;2.97;;;;;;;7.11;61.10;101080.97;4347347;32;32642;-89
2021/12/17 03:24:56;;;;;;;8.27;3.70;;;;;;;7.13;61.96;101084.50;4338769;33;33054;-91
2021/12/17 03:27:29;;;;;;;5.75;3.45;;;;;;;7.00;63.13;101081.97;4347783;32;33342;-92
2021/12/17 03:30:12;;;;;;;11.20;5.95;;;;;;;7.06;63.19;101082.78;4347466;32;32441;-91
2021/12/17 03:32:42;;;;;;;7.37;4.75;;;;;;;7.02;64.09;101109.09;4347174;33;33687;-93
2021/12/17 03:35:24;;;;;;;8.70;4.78;;;;;;;6.92;64.73;101111.78;4391012;32;33607;-92
2021/12/17 03:38:11;;;;;;;10.95;5.95;;;;;;;7.07;64.59;101121.28;4352492;32;34708;-87
2021/12/17 03:40:41;;;;;;;10.98;5.30;;;;;;;6.97;65.38;101118.75;4338770;32;33778;-88
2021/12/17 03:43:14;;;;;;;11.18;5.60;;;;;;;7.04;65.11;101123.97;4353033;32;34259;-88
2021/12/17 03:45:42;;;;;;;14.00;6.87;;;;;;;7.08;65.14;101099.41;4341417;32;32785;-88
2021/12/17 03:48:10;;;;;;;9.70;6.18;;;;;;;7.21;64.73;101102.78;4366581;32;34419;-88
2021/12/17 03:50:38;;;;;;;11.45;6.25;;;;;;;7.06;65.48;101118.69;4339825;32;33343;-88
2021/12/17 03:53:08;;;;;;;12.18;5.93;;;;;;;7.06;65.69;101113.44;4365551;32;32203;-88
2021/12/17 03:55:36;;;;;;;13.25;6.40;;;;;;;7.16;65.26;101094.94;4354561;32;32879;-88
2021/12/17 03:58:04;;;;;;;11.27;6.53;;;;;;;7.05;65.63;101080.19;4341915;32;33745;-88
2021/12/17 04:00:32;;;;;;;10.00;6.45;;;;;;;7.09;65.45;101093.28;4353127;32;33484;-88
2021/12/17 04:03:02;;;;;;;11.77;5.80;;;;;;;7.21;64.89;101087.03;4352420;32;34178;-88
2021/12/17 04:05:31;;;;;;;11.18;6.20;;;;;;;6.67;66.41;101094.47;4353562;32;32983;-89
2021/12/17 04:08:02;;;;;;;12.05;6.28;;;;;;;7.02;65.53;101086.31;4366330;32;32425;-90
2021/12/17 04:10:40;;;;;;;11.98;6.25;;;;;;;7.21;64.65;101096.66;4353854;32;32619;-89
2021/12/17 04:13:26;;;;;;;14.00;7.12;;;;;;;7.07;64.97;101102.03;4353832;32;32350;-89
2021/12/17 04:16:04;;;;;;;13.32;6.55;;;;;;;7.15;64.65;101095.84;4329248;32;34093;-89
2021/12/17 04:18:34;;;;;;;10.43;6.20;;;;;;;7.04;64.99;101104.72;4364774;32;32655;-90
2021/12/17 04:21:05;;;;;;;11.77;5.90;;;;;;;7.26;64.08;101111.50;4352176;32;33321;-89
2021/12/17 04:23:33;;;;;;;10.60;6.12;;;;;;;7.16;64.14;101120.34;4354533;32;33728;-91
2021/12/17 04:26:01;;;;;;;13.62;6.12;;;;;;;6.99;64.70;101114.38;4353996;32;33928;-90
2021/12/17 04:28:29;;;;;;;15.00;6.95;;;;;;;7.14;64.19;101112.50;4354327;32;33593;-89
2021/12/17 04:30:59;;;;;;;14.02;6.78;;;;;;;6.99;64.62;101124.87;4351684;32;34101;-89
2021/12/17 04:33:27;;;;;;;13.32;5.80;;;;;;;7.04;64.30;101130.97;4352798;32;32529;-89
2021/12/17 04:35:57;;;;;;;11.38;5.62;;;;;;;6.75;65.35;101139.06;4356786;32;33585;-90
2021/12/17 04:38:27;;;;;;;11.60;5.75;;;;;;;6.89;64.56;101137.22;4329816;32;33031;-89
2021/12/17 04:40:58;;;;;;;11.98;6.78;;;;;;;6.95;64.89;101139.78;4347308;32;32695;-91
2021/12/17 04:43:44;;;;;;;11.05;6.32;;;;;;;6.87;64.77;101129.31;4353349;32;31807;-91
2021/12/17 04:46:26;;;;;;;11.48;6.50;;;;;;;7.00;64.27;101121.37;4339205;32;32653;-89
2021/12/17 04:57:34;;;;;;;12.13;5.70;;;;;;;6.35;66.49;101127.03;4342922;32;33747;-91
2021/12/17 05:00:26;;;;;;;10.13;6.57;;;;;;;6.48;66.35;101117.34;4358141;32;32509;-95
2021/12/17 05:03:18;;;;;;;12.13;6.45;;;;;;;6.78;65.13;101113.62;4341054;32;33037;-94
2021/12/17 05:06:14;;;;;;;10.70;5.95;;;;;;;6.84;64.76;101103.12;4340434;33;33893;-95
2021/12/17 05:09:17;;;;;;;12.27;5.75;;;;;;;6.99;64.27;101101.25;4372784;32;34454;-93
2021/12/17 05:18:24;;;;;;;9.95;5.50;;;;;;;6.70;65.40;101089.22;4363893;32;32108;-94
2021/12/17 05:21:05;;;;;;;8.00;4.78;;;;;;;6.69;65.51;101076.97;4356209;32;32857;-94
2021/12/17 05:23:51;;;;;;;7.62;4.53;;;;;;;6.90;64.60;101062.81;4341661;32;34066;-94
2021/12/17 05:26:34;;;;;;;8.57;5.20;;;;;;;6.80;64.89;101056.75;4353587;32;32914;-94
2021/12/17 05:29:16;;;;;;;10.30;5.68;;;;;;;6.47;66.13;101071.00;4326236;33;32359;-94
2021/12/17 05:31:58;;;;;;;8.30;5.47;;;;;;;6.22;66.99;101070.28;4329836;33;32995;-93
2021/12/17 05:34:40;;;;;;;8.77;5.03;;;;;;;6.62;65.71;101070.03;4399654;32;33103;-93
2021/12/17 05:37:22;;;;;;;9.48;5.50;;;;;;;6.49;66.22;101077.09;4360354;32;33077;-93
2021/12/17 05:40:16;;;;;;;9.60;6.03;;;;;;;6.51;65.63;101079.75;4359822;32;34816;-90
2021/12/17 05:42:44;;;;;;;9.07;5.18;;;;;;;6.51;65.45;101077.13;4357424;32;32878;-89
2021/12/17 05:45:31;;;;;;;11.80;5.37;;;;;;;6.05;66.72;101077.37;4362209;32;34100;-90
2021/12/17 05:48:03;;;;;;;9.52;4.75;;;;;;;6.47;65.73;101064.88;4359363;32;32919;-90
2021/12/17 05:50:33;;;;;;;10.90;5.28;;;;;;;6.40;65.51;101069.28;4362348;32;32732;-90
2021/12/17 05:53:04;;;;;;;7.75;4.72;;;;;;;6.66;64.93;101087.50;4363195;32;33185;-90
2021/12/17 05:55:51;;;;;;;5.90;3.95;;;;;;;6.56;65.16;101077.94;4363024;32;33077;-90
2021/12/17 05:58:19;;;;;;;8.65;4.62;;;;;;;6.50;65.20;101093.72;4350471;32;33066;-90
2021/12/17 06:00:50;;;;;;;8.68;4.72;;;;;;;6.26;65.88;101092.09;4355491;32;33365;-91
2021/12/17 06:03:39;;;;;;;7.28;4.62;;;;;;;6.40;65.62;101104.25;4361276;32;33512;-92
2021/12/17 06:06:35;;;;;;;9.73;4.78;;;;;;;6.72;64.52;101087.44;4352381;32;33614;-90
2021/12/17 06:09:08;;;;;;;10.80;4.93;;;;;;;6.53;64.55;101083.22;4373709;32;32348;-95
2021/12/17 06:11:47;;;;;;;11.12;5.50;;;;;;;6.47;64.98;101078.88;4366551;32;33288;-92
2021/12/17 06:14:52;;;;;;;7.65;4.70;;;;;;;6.30;65.27;101073.72;4366604;32;34366;-91
2021/12/17 06:17:59;;;;;;;9.05;4.87;;;;;;;6.33;65.69;101081.59;4351923;32;33639;-93
2021/12/17 06:20:59;;;;;;;9.88;4.40;;;;;;;6.46;65.27;101107.72;4351116;32;34657;-91
2021/12/17 06:23:27;;;;;;;6.65;4.37;;;;;;;6.02;66.57;101099.22;4345333;32;32865;-90
2021/12/17 06:25:55;;;;;;;6.50;3.72;;;;;;;6.14;66.20;101095.69;4348725;32;33832;-91
2021/12/17 06:28:55;;;;;;;9.93;3.90;;;;;;;6.17;66.09;101100.88;4366693;32;32303;-95
2021/12/17 06:31:47;;;;;;;7.43;4.20;;;;;;;6.12;66.36;101094.78;4337433;32;33455;-91
2021/12/17 06:34:48;;;;;;;11.15;4.68;;;;;;;6.35;65.04;101092.94;4366775;32;34056;-90
2021/12/17 06:37:43;;;;;;;8.98;5.12;;;;;;;6.03;65.86;101095.75;4367588;32;32358;-91
2021/12/17 06:40:35;;;;;;;10.05;4.87;;;;;;;6.15;65.73;101100.91;4337892;33;33001;-91
2021/12/17 06:43:40;;;;;;;8.82;4.15;;;;;;;6.41;64.86;101113.91;4356176;32;33054;-92
2021/12/17 06:46:38;;;;;;;7.05;4.10;;;;;;;6.32;65.15;101115.72;4359629;32;32425;-91
2021/12/17 06:49:54;;;;;;;7.35;4.80;;;;;;;6.44;64.38;101133.97;4351262;32;32060;-91
2021/12/17 07:17:37;;;;;;;13.55;4.28;;;;;;;6.38;63.95;101149.78;4378531;32;33224;-91
2021/12/17 07:23:15;;;;;;;9.40;6.10;;;;;;;6.20;64.93;101148.09;4364526;32;32180;-91
2021/12/17 07:32:51;;;;;;;10.75;5.43;;;;;;;6.40;64.17;101166.34;4371439;32;33065;-89
2021/12/17 07:35:51;;;;;;;7.50;5.00;;;;;;;6.46;64.10;101174.22;4354599;32;32194;-91
2021/12/17 07:38:41;;;;;;;6.75;4.57;;;;;;;6.62;63.75;101182.87;4329174;32;33055;-90
2021/12/17 07:41:44;;;;;;;16.17;4.95;;;;;;;6.84;62.91;101202.87;4354221;32;33718;-91
2021/12/17 07:44:43;;;;;;;10.25;4.93;;;;;;;6.86;62.85;101193.22;4382457;32;33169;-92
2021/12/17 07:47:25;;;;;;;7.12;3.67;;;;;;;6.71;63.32;101198.56;4366011;32;32217;-91
2021/12/17 07:50:08;;;;;;;8.90;4.32;;;;;;;6.58;63.79;101194.28;4346784;32;33533;-90
2021/12/17 07:53:02;;;;;;;7.55;4.37;;;;;;;6.69;63.36;101195.06;4373949;32;32909;-93
2021/12/17 07:55:43;;;;;;;9.90;4.30;;;;;;;6.96;62.39;101195.81;4365209;32;32617;-92
2021/12/17 07:58:35;;;;;;;8.82;4.30;;;;;;;6.97;62.45;101213.28;4364093;32;32544;-91
2021/12/17 08:01:06;;;;;;;10.57;5.18;;;;;;;7.16;61.54;101222.78;4343781;32;34055;-90
2021/12/17 08:03:35;;;;;;;12.32;5.12;;;;;;;7.29;61.01;101224.44;4354794;32;33195;-90
2021/12/17 08:06:23;;;;;;;6.82;4.30;;;;;;;7.23;61.31;101211.38;4347606;32;32938;-87
2021/12/17 08:08:53;;;;;;;6.35;4.43;;;;;;;7.50;60.20;101206.75;4342389;32;32643;-91
2021/12/17 08:11:44;;;;;;;7.65;3.90;;;;;;;7.48;60.11;101212.03;4351098;32;32508;-91
2021/12/17 08:14:37;;;;;;;10.48;4.68;;;;;;;7.11;61.18;101217.56;4363612;32;34417;-91
2021/12/17 08:26:54;;;;;;;8.48;4.03;;;;;;;7.50;60.37;101209.38;4360689;32;34577;-94
2021/12/17 08:29:57;;;;;;;5.95;3.72;;;;;;;7.40;60.08;101209.47;4351712;32;32910;-94
2021/12/17 08:32:49;;;;;;;10.73;4.67;;;;;;;7.64;59.96;101202.25;4388863;32;33222;-94
2021/12/17 08:35:42;;;;;;;10.13;4.00;;;;;;;7.73;59.54;101206.56;4380437;32;32524;-93
2021/12/17 08:38:33;;;;;;;8.27;3.92;;;;;;;7.52;60.51;101198.00;4355703;32;32731;-93
2021/12/17 08:41:26;;;;;;;5.57;3.55;;;;;;;7.83;59.22;101205.56;4362033;32;32612;-94
2021/12/17 08:44:18;;;;;;;8.02;3.80;;;;;;;7.54;60.69;101213.75;4316703;33;33946;-94
2021/12/17 08:47:11;;;;;;;8.70;3.45;;;;;;;7.70;59.41;101210.97;4396426;32;33133;-93
2021/12/17 08:50:06;;;;;;;6.55;3.55;;;;;;;7.95;58.79;101213.34;4352966;32;32804;-94
2021/12/17 08:52:58;;;;;;;8.68;3.80;;;;;;;8.10;58.94;101207.06;4326493;32;32655;-92
2021/12/17 08:55:49;;;;;;;6.10;3.95;;;;;;;8.11;58.08;101198.25;4357379;32;33149;-94
2021/12/17 08:58:41;;;;;;;9.43;3.97;;;;;;;8.03;59.09;101201.00;4337183;33;33326;-92
2021/12/17 09:01:32;;;;;;;6.32;3.30;;;;;;;8.26;57.97;101202.47;4375503;32;33736;-93
2021/12/17 09:04:27;;;;;;;6.82;3.78;;;;;;;8.20;58.27;101204.28;4375081;32;32648;-94
2021/12/17 09:07:19;;;;;;;6.45;3.58;;;;;;;8.13;57.94;101215.78;4363910;32;33409;-94
2021/12/17 09:10:11;;;;;;;9.35;4.62;;;;;;;8.00;58.43;101215.94;4378315;32;33785;-92
2021/12/17 09:13:03;;;;;;;11.48;4.50;;;;;;;8.01;59.06;101212.41;4348359;32;33043;-93
2021/12/17 09:15:59;;;;;;;6.82;3.65;;;;;;;8.33;57.93;101199.78;4340942;33;33967;-92
2021/12/17 09:18:52;;;;;;;9.25;3.45;;;;;;;8.44;57.84;101192.63;4353898;32;32752;-93
2021/12/17 09:21:44;;;;;;;9.48;3.58;;;;;;;8.63;56.97;101189.75;4372437;32;32790;-94
2021/12/17 09:24:36;;;;;;;7.55;3.65;;;;;;;8.78;56.50;101186.91;4348197;32;33367;-89
2021/12/17 09:27:10;;;;;;;4.72;3.20;;;;;;;8.72;56.65;101184.38;4359681;32;34264;-88
2021/12/17 09:29:38;;;;;;;7.20;3.62;;;;;;;8.87;55.66;101170.09;4337130;33;33787;-88
2021/12/17 09:32:05;;;;;;;9.48;3.37;;;;;;;8.99;55.90;101164.66;4350943;32;33702;-89
2021/12/17 09:34:34;;;;;;;8.43;3.67;;;;;;;8.57;57.82;101164.38;4335276;33;33945;-89
2021/12/17 09:37:01;;;;;;;5.07;3.50;;;;;;;8.89;56.02;101163.94;4353460;32;32734;-88
2021/12/17 09:39:29;;;;;;;8.35;3.28;;;;;;;9.30;54.66;101158.87;4341181;32;32915;-88
2021/12/17 09:41:57;;;;;;;7.32;3.33;;;;;;;9.13;56.50;101156.56;4343720;33;32530;-88
2021/12/17 09:44:24;;;;;;;6.90;3.20;;;;;;;9.62;54.23;101150.44;4342680;33;33210;-87
2021/12/17 09:46:57;;;;;;;10.00;3.00;;;;;;;9.18;55.65;101152.06;4335300;32;32789;-87
2021/12/17 09:49:25;;;;;;;6.82;3.00;;;;;;;9.51;53.69;101145.34;4342185;32;33549;-87
2021/12/17 09:51:53;;;;;;;7.80;3.00;;;;;;;9.74;53.11;101147.56;4348384;32;32548;-87
2021/12/17 09:54:20;;;;;;;7.10;2.95;;;;;;;9.20;55.68;101158.16;4343402;32;33403;-88
2021/12/17 09:56:48;;;;;;;5.35;2.70;;;;;;;9.11;54.71;101153.91;4345269;32;34103;-87
2021/12/17 09:59:16;;;;;;;8.57;3.17;;;;;;;9.49;53.92;101163.84;4348731;32;32303;-88
2021/12/17 10:01:45;;;;;;;4.25;3.00;;;;;;;9.56;54.42;101159.31;4341491;32;33031;-88
2021/12/17 10:04:31;;;;;;;6.95;3.08;;;;;;;9.54;54.29;101168.13;4341825;32;34693;-87
2021/12/17 10:07:19;;;;;;;8.18;2.90;;;;;;;9.65;54.21;101168.84;4342009;33;34233;-88
2021/12/17 10:09:54;;;;;;;4.32;2.72;;;;;;;9.69;53.56;101146.78;4346368;32;33839;-87
2021/12/17 10:12:27;;;;;;;4.80;2.25;;;;;;;9.87;52.51;101145.56;4346833;32;33437;-88
2021/12/17 10:15:12;;;;;;;6.15;2.33;;;;;;;9.69;53.13;101146.78;4349061;32;33350;-88
2021/12/17 10:17:53;;;;;;;7.40;2.92;;;;;;;9.60;53.38;101160.16;4345228;32;33112;-88
2021/12/17 10:20:22;;;;;;;5.83;2.27;;;;;;;9.39;54.09;101154.31;4340203;33;32981;-88
2021/12/17 10:22:57;;;;;;;4.25;2.40;;;;;;;9.63;53.48;101154.78;4337140;32;32460;-88
2021/12/17 10:25:26;;;;;;;4.80;2.50;;;;;;;9.71;53.94;101144.97;4375659;32;33611;-88
2021/12/17 10:27:59;;;;;;;11.43;2.33;;;;;;;10.17;51.92;101144.09;4352086;32;32691;-88
2021/12/17 10:30:28;;;;;;;5.45;2.58;;;;;;;10.30;51.51;101142.94;4360542;32;32791;-88
2021/12/17 10:32:58;;;;;;;4.00;1.85;;;;;;;10.06;52.81;101143.41;4360792;32;33013;-88
2021/12/17 10:35:31;;;;;;;5.97;2.20;;;;;;;10.15;51.22;101141.47;4374253;32;33982;-88
2021/12/17 10:38:06;;;;;;;4.78;1.80;;;;;;;9.83;53.12;101128.06;4360619;32;33891;-88
2021/12/17 10:40:38;;;;;;;5.68;2.15;;;;;;;10.05;51.91;101128.50;4360121;32;33443;-88
2021/12/17 10:43:16;;;;;;;;;;;;;;;9.95;52.43;101123.41;4353436;32;32902;-88
2021/12/17 10:45:59;;;;;;;4.47;1.98;;;;;;;10.38;50.87;101119.03;4336078;33;32932;-88
2021/12/17 10:48:50;;;;;;;5.93;2.20;;;;;;;10.06;51.16;101109.13;4365977;32;33333;-87
2021/12/17 10:54:04;;;;;;;4.62;2.10;;;;;;;9.74;51.88;101113.28;4362013;32;34168;-87
2021/12/17 10:56:41;;;;;;;5.68;2.40;;;;;;;9.92;50.86;101120.84;4364786;32;34295;-88
2021/12/17 10:59:13;;;;;;;4.40;2.28;;;;;;;9.83;51.58;101113.09;4351941;32;33787;-88
2021/12/17 11:01:45;;;;;;;3.50;2.00;;;;;;;9.95;51.35;101112.84;4361046;32;33249;-88
2021/12/17 11:04:30;;;;;;;5.35;2.20;;;;;;;9.96;51.99;101108.44;4357296;32;34004;-88
2021/12/17 11:07:17;;;;;;;5.70;2.22;;;;;;;9.98;51.62;101118.06;4350033;32;32962;-88
2021/12/17 11:09:57;;;;;;;3.25;2.12;;;;;;;9.87;51.76;101093.66;4355297;32;32784;-88
2021/12/17 11:12:37;;;;;;;3.83;2.08;;;;;;;9.51;52.45;101112.84;4349542;32;31707;-87
2021/12/17 11:15:19;;;;;;;9.68;2.80;;;;;;;9.95;51.50;101107.56;4368409;32;33346;-85
2021/12/17 11:17:56;;;;;;;7.07;2.28;;;;;;;9.81;51.86;101103.47;4354951;32;32660;-85
2021/12/17 11:20:29;;;;;;;4.70;2.05;;;;;;;9.68;52.69;101094.91;4354177;32;34370;-84
2021/12/17 11:23:07;;;;;;;5.80;1.87;;;;;;;10.06;50.99;101095.91;4364706;32;33320;-84
2021/12/17 11:25:37;;;;;;;5.37;2.03;;;;;;;10.06;50.71;101103.84;4365960;32;34619;-85
2021/12/17 11:28:07;;;;;;;6.62;2.40;;;;;;;9.91;51.11;101100.59;4358057;32;33674;-85
2021/12/17 11:30:40;;;;;;;6.50;2.80;;;;;;;9.85;51.79;101108.66;4367547;32;32922;-85
2021/12/17 11:33:09;;;;;;;6.62;2.37;;;;;;;9.98;51.25;101099.59;4370986;32;32254;-84
2021/12/17 11:35:46;;;;;;;4.62;1.83;;;;;;;9.92;52.16;101105.00;4373132;32;33311;-85
2021/12/17 11:38:33;;;;;;;4.90;2.30;;;;;;;10.11;50.94;101101.97;4368944;32;34052;-84
2021/12/17 11:41:12;;;;;;;3.75;2.05;;;;;;;9.83;51.09;101096.41;4364021;32;32957;-85
2021/12/17 11:43:50;;;;;;;8.13;2.10;;;;;;;9.71;52.22;101097.50;4363721;32;33317;-85
2021/12/17 11:46:25;;;;;;;4.95;2.20;;;;;;;9.59;51.95;101088.06;4365679;32;33452;-85
2021/12/17 11:49:15;;;;;;;4.75;1.67;;;;;;;9.40;52.56;101091.94;4367481;32;34634;-85
2021/12/17 11:51:52;;;;;;;6.97;1.77;;;;;;;9.37;52.63;101094.63;4347542;32;33040;-85
2021/12/17 11:54:29;;;;;;;6.18;2.70;;;;;;;9.04;54.51;101093.47;4357168;32;32734;-85
2021/12/17 11:57:06;;;;;;;4.03;2.12;;;;;;;9.21;53.62;101091.41;4364443;32;34630;-85
2021/12/17 11:59:39;;;;;;;4.90;2.53;;;;;;;9.38;52.56;101094.59;4368675;32;34431;-84
2021/12/17 12:02:16;;;;;;;7.20;1.67;;;;;;;9.57;52.21;101104.81;4364555;32;32910;-85
2021/12/17 12:04:54;;;;;;;5.05;2.28;;;;;;;9.42;52.30;101104.19;4365476;32;33820;-85
2021/12/17 12:07:25;;;;;;;5.37;1.65;;;;;;;9.16;53.33;101112.56;4364144;32;33547;-85
2021/12/17 12:10:04;;;;;;;5.18;1.92;;;;;;;9.30;52.97;101112.31;4364437;32;34083;-85
2021/12/17 12:12:34;;;;;;;4.03;1.70;;;;;;;9.24;53.34;101120.34;4367293;32;32753;-84
2021/12/17 12:15:21;;;;;;;4.22;2.12;;;;;;;9.42;51.49;101108.59;4359883;32;32378;-84
2021/12/17 12:17:58;;;;;;;3.37;1.80;;;;;;;9.28;52.43;101114.13;4370021;32;33559;-84
2021/12/17 12:20:45;;;;;;;2.22;1.37;;;;;;;9.03;52.80;101120.72;4369163;32;34230;-85
2021/12/17 12:23:32;;;;;;;3.70;1.92;;;;;;;9.17;52.68;101116.09;4358644;32;33720;-85
2021/12/17 12:26:03;;;;;;;8.65;1.70;;;;;;;9.26;51.91;101108.03;4370128;32;32717;-85
2021/12/17 12:28:49;;;;;;;2.72;1.48;;;;;;;9.57;51.55;101115.34;4368681;32;33894;-85
2021/12/17 12:31:27;;;;;;;9.05;2.35;;;;;;;9.34;52.36;101111.37;4368143;32;33589;-85
2021/12/17 12:34:01;;;;;;;5.37;2.00;;;;;;;9.67;50.89;101109.00;4370968;32;34778;-85
2021/12/17 12:36:54;;;;;;;5.85;1.70;;;;;;;9.39;51.17;101096.34;4368307;32;33861;-85
2021/12/17 12:39:32;;;;;;;5.45;1.77;;;;;;;9.45;51.32;101090.97;4354224;32;33816;-85
2021/12/17 12:42:17;;;;;;;3.35;1.92;;;;;;;9.16;52.29;101098.50;4367077;32;32438;-85
2021/12/17 12:44:46;;;;;;;5.93;2.15;;;;;;;9.49;52.19;101102.31;4365711;32;33230;-85
2021/12/17 12:47:15;;;;;;;8.15;2.30;;;;;;;9.47;52.42;101089.16;4369515;32;34282;-86
2021/12/17 12:49:45;;;;;;;6.55;1.77;;;;;;;9.58;51.44;101096.88;4356514;32;33707;-85
2021/12/17 12:52:16;;;;;;;4.45;1.90;;;;;;;9.05;52.96;101101.31;4370763;32;33224;-85
2021/12/17 12:54:48;;;;;;;6.37;1.48;;;;;;;9.43;51.68;101099.78;4357170;32;32262;-85
2021/12/17 12:57:26;;;;;;;6.68;2.15;;;;;;;9.19;52.70;101101.97;4366245;32;33519;-85
2021/12/17 12:59:56;;;;;;;4.95;1.75;;;;;;;9.16;53.29;101098.50;4369129;32;33757;-86
2021/12/17 13:02:28;;;;;;;5.07;1.70;;;;;;;9.43;52.15;101103.28;4369123;32;33888;-85
2021/12/17 13:04:58;;;;;;;3.80;1.50;;;;;;;9.52;51.22;101093.47;4357441;32;33649;-85
2021/12/17 13:07:35;;;;;;;4.60;1.50;;;;;;;9.11;52.24;101100.34;4355237;32;32351;-85
2021/12/17 13:10:30;;;;;;;3.28;2.03;;;;;;;9.07;52.94;101098.66;4366537;32;34329;-85
2021/12/17 13:13:50;;;;;;;2.85;2.15;;;;;;;9.01;53.59;101098.78;4368478;32;34846;-86
2021/12/17 13:16:44;;;;;;;6.65;2.62;;;;;;;8.85;54.34;101114.81;4346112;32;32909;-85
2021/12/17 13:22:02;;;;;;;5.45;1.98;;;;;;;8.72;54.06;101113.28;4353679;32;32249;-85
2021/12/17 13:24:33;;;;;;;3.78;1.92;;;;;;;8.87;54.16;101099.84;4355307;32;32870;-85
2021/12/17 13:27:09;;;;;;;5.90;2.03;;;;;;;8.71;55.28;101108.91;4352189;32;33000;-86
2021/12/17 13:29:40;;;;;;;2.17;1.42;;;;;;;9.15;53.32;101104.69;4367596;32;33353;-86
2021/12/17 13:32:09;;;;;;;2.25;1.52;;;;;;;9.22;53.13;101104.56;4371407;32;34516;-86
2021/12/17 13:34:39;;;;;;;3.83;1.80;;;;;;;8.93;53.71;101099.78;4362899;32;33307;-86
2021/12/17 13:37:14;;;;;;;6.43;2.08;;;;;;;9.21;52.69;101101.97;4355481;32;32863;-86
2021/12/17 13:39:50;;;;;;;3.53;1.87;;;;;;;8.62;54.76;101103.78;4367828;32;33764;-86
2021/12/17 13:42:20;;;;;;;4.07;2.10;;;;;;;8.93;53.19;101105.03;4362241;32;32821;-86
2021/12/17 13:45:01;;;;;;;8.77;2.78;;;;;;;8.59;54.03;101115.22;4370254;32;34643;-85
2021/12/17 13:47:37;;;;;;;3.83;1.60;;;;;;;8.82;53.63;101108.72;4373049;32;33874;-85
2021/12/17 13:50:18;;;;;;;5.05;2.03;;;;;;;8.79;53.48;101109.66;4354634;32;32470;-86
2021/12/17 13:52:46;;;;;;;5.68;1.73;;;;;;;8.49;54.19;101115.37;4351803;32;33985;-86
2021/12/17 13:55:17;;;;;;;5.70;1.73;;;;;;;8.34;54.94;101122.53;4370558;32;34108;-87
2021/12/17 13:57:46;;;;;;;5.72;1.90;;;;;;;8.48;54.26;101129.44;4371534;32;33624;-86
2021/12/17 14:00:20;;;;;;;6.22;1.85;;;;;;;8.63;53.57;101123.94;4355951;32;32897;-86
2021/12/17 14:02:50;;;;;;;3.37;1.70;;;;;;;8.50;53.97;101120.63;4361044;32;32646;-87
2021/12/17 14:05:28;;;;;;;6.40;2.03;;;;;;;8.49;54.07;101128.53;4357200;32;33208;-86
2021/12/17 14:08:01;;;;;;;10.52;1.98;;;;;;;8.49;54.33;101141.69;4354318;32;34023;-87
2021/12/17 14:10:29;;;;;;;;;;;;;;;8.52;53.79;101139.88;4370461;32;31350;-87
2021/12/17 14:12:58;;;;;;;6.87;1.87;;;;;;;8.75;53.52;101134.31;4368545;32;33979;-87
2021/12/17 14:15:46;;;;;;;3.70;2.00;;;;;;;8.74;53.09;101129.06;4356274;32;35484;-87
2021/12/17 14:18:17;;;;;;;5.30;2.00;;;;;;;8.64;53.50;101130.94;4353370;32;32302;-87
2021/12/17 14:20:48;;;;;;;8.15;2.28;;;;;;;8.54;53.93;101124.06;4361763;32;32612;-87
2021/12/17 14:23:24;;;;;;;4.72;1.87;;;;;;;8.83;53.02;101132.44;4358599;32;32417;-87
2021/12/17 14:25:54;;;;;;;9.23;2.80;;;;;;;8.75;53.45;101122.91;4355165;32;33321;-87
2021/12/17 14:28:30;;;;;;;3.78;1.40;;;;;;;8.71;53.12;101116.81;4360856;32;33427;-87
2021/12/17 14:31:03;;;;;;;4.25;2.05;;;;;;;8.80;52.87;101119.28;4356471;32;32617;-87
2021/12/17 14:33:33;;;;;;;7.65;3.03;;;;;;;8.57;53.59;101113.50;4362430;32;32574;-87
2021/12/17 14:36:17;;;;;;;4.32;1.60;;;;;;;8.46;53.99;101105.78;4370443;32;33933;-87
2021/12/17 14:38:57;;;;;;;8.35;2.22;;;;;;;8.74;53.24;101106.22;4356388;32;32772;-87
2021/12/17 14:41:34;;;;;;;4.22;1.60;;;;;;;8.72;53.18;101108.00;4362938;32;32120;-87
2021/12/17 15:03:01;;;;;;;3.90;1.90;;;;;;;8.14;54.88;101103.53;4369181;32;33894;-87
2021/12/17 15:05:31;;;;;;;6.15;2.58;;;;;;;8.09;55.07;101102.72;4351698;32;33700;-88
2021/12/17 15:08:00;;;;;;;8.32;2.65;;;;;;;7.78;56.19;101099.56;4374353;32;33085;-87
2021/12/17 15:10:28;;;;;;;8.35;2.35;;;;;;;7.93;56.02;101104.69;4376561;32;34530;-88
2021/12/17 15:13:00;;;;;;;4.82;2.53;;;;;;;8.20;54.85;101092.91;4360230;32;32717;-87
2021/12/17 15:15:36;;;;;;;6.03;2.75;;;;;;;8.25;54.75;101096.34;4359218;32;32901;-87
2021/12/17 15:18:09;;;;;;;5.18;2.50;;;;;;;8.28;54.61;101106.84;4352290;32;33369;-87